Time;durP1;ratioP1;P1;durP2;ratioP2;P2;SDS_P1;SDS_P2;PMS_P1;PMS_P2;Temp;Humidity;BMP_temperature;BMP_pressure;BME280_temperature;BME280_humidity;BME280_pressure;Samples;Min_cycle;Max_cycle;Signal;HPM_P1;HPM_P2
2020/12/29 09:01:37;;;;;;;4.38;1.67;;;;;;;;;;5089835;27;20719;-69
2020/12/29 09:04:12;;;;;;;5.72;1.45;;;;;;;;;;5088234;28;20528;-70
2020/12/29 09:06:38;;;;;;;4.20;1.40;;;;;;;;;;5090032;28;20499;-68
2020/12/29 09:09:06;;;;;;;4.75;1.67;;;;;;;;;;5090125;28;20556;-69
2020/12/29 09:11:31;;;;;;;9.32;2.50;;;;;;;;;;5089971;28;20016;-70
2020/12/29 09:14:01;;;;;;;5.85;2.63;;;;;;;;;;5089944;28;20069;-70
2020/12/29 09:16:26;;;;;;;5.80;1.80;;;;;;;;;;5087710;28;20027;-70
2020/12/29 09:18:52;;;;;;;4.35;2.40;;;;;;;;;;5089618;28;20095;-70
2020/12/29 09:21:18;;;;;;;3.15;1.92;;;;;;;;;;5089898;28;20032;-70
2020/12/29 09:23:44;;;;;;;6.63;1.63;;;;;;;;;;5088640;28;20438;-70
2020/12/29 09:26:09;;;;;;;8.77;3.08;;;;;;;;;;5089976;28;20020;-69
2020/12/29 09:28:34;;;;;;;3.30;1.98;;;;;;;;;;5089684;28;20028;-69
2020/12/29 09:31:07;;;;;;;6.55;2.28;;;;;;;;;;5089369;28;20389;-68
2020/12/29 09:33:33;;;;;;;13.32;2.38;;;;;;;;;;5089377;28;20008;-69
2020/12/29 09:36:02;;;;;;;6.68;2.20;;;;;;;;;;5089397;28;20098;-69
2020/12/29 09:38:28;;;;;;;10.32;2.75;;;;;;;;;;5089516;28;20389;-69
2020/12/29 09:40:54;;;;;;;7.28;2.20;;;;;;;;;;5087980;28;20032;-69
2020/12/29 09:43:21;;;;;;;7.05;2.45;;;;;;;;;;5087629;28;20026;-70
2020/12/29 09:45:47;;;;;;;5.13;1.90;;;;;;;;;;5088468;28;20032;-70
2020/12/29 09:48:14;;;;;;;13.20;5.50;;;;;;;;;;5087121;28;20019;-70
2020/12/29 09:50:39;;;;;;;10.32;1.98;;;;;;;;;;5087480;28;20009;-70
2020/12/29 09:53:04;;;;;;;5.88;2.20;;;;;;;;;;5088786;28;20070;-70
2020/12/29 09:55:30;;;;;;;6.75;2.40;;;;;;;;;;5087756;28;20040;-70
2020/12/29 09:57:56;;;;;;;5.60;2.60;;;;;;;;;;5088805;28;20021;-70
2020/12/29 10:00:21;;;;;;;5.90;1.85;;;;;;;;;;5089091;28;20048;-70
2020/12/29 10:02:47;;;;;;;4.13;1.85;;;;;;;;;;5087655;28;20024;-71
2020/12/29 10:05:12;;;;;;;9.93;2.35;;;;;;;;;;5088698;28;20124;-71
2020/12/29 10:07:38;;;;;;;7.78;1.92;;;;;;;;;;5087571;28;20024;-69
2020/12/29 10:10:03;;;;;;;4.85;2.20;;;;;;;;;;5088330;28;20028;-73
2020/12/29 10:12:29;;;;;;;5.93;1.80;;;;;;;;;;5076692;28;20142;-75
2020/12/29 10:14:56;;;;;;;7.03;2.00;;;;;;;;;;5074697;28;20078;-74
2020/12/29 10:17:21;;;;;;;5.78;2.50;;;;;;;;;;5073127;28;20476;-74
2020/12/29 10:19:47;;;;;;;9.77;2.20;;;;;;;;;;5073425;28;20111;-74
2020/12/29 10:22:12;;;;;;;5.93;1.98;;;;;;;;;;5073461;28;20047;-73
2020/12/29 10:24:38;;;;;;;7.22;1.98;;;;;;;;;;5074797;28;20039;-73
2020/12/29 10:27:03;;;;;;;4.13;1.45;;;;;;;;;;5074783;28;20017;-74
2020/12/29 10:29:29;;;;;;;7.18;1.42;;;;;;;;;;5073316;28;20020;-74
2020/12/29 10:31:54;;;;;;;5.53;1.80;;;;;;;;;;5074592;28;20020;-74
2020/12/29 10:34:20;;;;;;;9.05;1.63;;;;;;;;;;5073328;28;20034;-74
2020/12/29 10:36:46;;;;;;;5.53;1.67;;;;;;;;;;5073430;28;20012;-73
2020/12/29 10:39:11;;;;;;;5.90;2.08;;;;;;;;;;5073390;28;20025;-74
2020/12/29 10:41:38;;;;;;;7.40;1.58;;;;;;;;;;5073320;28;20048;-74
2020/12/29 10:44:05;;;;;;;7.53;2.30;;;;;;;;;;5073030;28;20061;-74
2020/12/29 10:46:31;;;;;;;4.38;1.40;;;;;;;;;;5073598;28;20496;-74
2020/12/29 10:48:57;;;;;;;6.70;1.58;;;;;;;;;;5073169;28;20020;-74
2020/12/29 10:51:23;;;;;;;5.18;1.80;;;;;;;;;;5073129;28;20077;-74
2020/12/29 10:53:49;;;;;;;2.55;1.27;;;;;;;;;;5074112;28;20548;-74
2020/12/29 10:56:15;;;;;;;11.27;1.90;;;;;;;;;;5072820;28;20060;-74
2020/12/29 10:58:42;;;;;;;8.68;1.90;;;;;;;;;;5074032;28;20035;-72
2020/12/29 11:01:08;;;;;;;7.20;1.98;;;;;;;;;;5072292;28;20543;-74
2020/12/29 11:03:34;;;;;;;5.57;2.10;;;;;;;;;;5073006;28;20017;-74
2020/12/29 11:06:00;;;;;;;18.40;5.95;;;;;;;;;;5074065;28;20020;-74
2020/12/29 11:08:26;;;;;;;10.98;4.05;;;;;;;;;;5072955;28;20021;-73
2020/12/29 11:10:52;;;;;;;3.80;2.00;;;;;;;;;;5073062;28;20027;-74
2020/12/29 11:13:18;;;;;;;6.30;1.85;;;;;;;;;;5072733;28;20028;-74
2020/12/29 11:15:44;;;;;;;2.55;1.17;;;;;;;;;;5055597;28;20062;-74
2020/12/29 11:18:10;;;;;;;4.85;1.27;;;;;;;;;;5055490;28;20479;-75
2020/12/29 11:20:35;;;;;;;3.45;1.20;;;;;;;;;;5073734;28;20020;-74
2020/12/29 11:23:01;;;;;;;3.35;1.23;;;;;;;;;;5072800;28;20017;-74
2020/12/29 11:25:26;;;;;;;3.40;1.30;;;;;;;;;;5055845;28;20025;-73
2020/12/29 11:27:52;;;;;;;3.88;1.33;;;;;;;;;;5073667;28;20020;-74
2020/12/29 11:30:17;;;;;;;4.53;1.70;;;;;;;;;;5073340;28;20503;-74
2020/12/29 11:32:43;;;;;;;5.50;2.80;;;;;;;;;;5073550;28;20012;-74
2020/12/29 11:35:08;;;;;;;7.78;2.30;;;;;;;;;;5073726;28;20017;-74
2020/12/29 11:37:34;;;;;;;7.60;1.45;;;;;;;;;;5073581;28;20020;-74
2020/12/29 11:40:00;;;;;;;7.72;2.25;;;;;;;;;;5071842;28;20025;-74
2020/12/29 11:42:27;;;;;;;6.97;1.65;;;;;;;;;;5073480;28;20016;-74
2020/12/29 11:44:52;;;;;;;8.82;2.20;;;;;;;;;;5071964;28;20016;-74
2020/12/29 11:47:18;;;;;;;8.18;2.53;;;;;;;;;;5071595;28;20024;-74
2020/12/29 11:49:44;;;;;;;4.32;1.80;;;;;;;;;;5073023;28;20066;-73
2020/12/29 11:52:09;;;;;;;7.50;2.70;;;;;;;;;;5073411;28;20074;-74
2020/12/29 11:54:35;;;;;;;14.15;5.05;;;;;;;;;;5073194;28;20020;-74
2020/12/29 11:57:00;;;;;;;8.85;2.63;;;;;;;;;;5073120;28;20022;-73
2020/12/29 11:59:25;;;;;;;10.85;3.30;;;;;;;;;;5072588;28;20024;-73
2020/12/29 12:01:51;;;;;;;11.32;4.25;;;;;;;;;;5071712;28;20024;-73
2020/12/29 12:04:16;;;;;;;6.20;1.92;;;;;;;;;;5073414;28;20008;-74
2020/12/29 12:06:45;;;;;;;7.32;1.85;;;;;;;;;;5073089;28;20055;-74
2020/12/29 12:09:11;;;;;;;6.00;1.73;;;;;;;;;;5071787;28;20016;-74
2020/12/29 12:11:37;;;;;;;4.40;1.30;;;;;;;;;;5072871;28;20476;-73
2020/12/29 12:14:02;;;;;;;3.53;1.45;;;;;;;;;;5072532;28;20095;-73
2020/12/29 12:16:28;;;;;;;7.03;1.70;;;;;;;;;;5072105;28;20027;-73
2020/12/29 12:18:53;;;;;;;9.13;2.22;;;;;;;;;;5072860;28;20016;-73
2020/12/29 12:21:27;;;;;;;6.25;2.00;;;;;;;;;;5072581;28;20056;-73
2020/12/29 12:23:53;;;;;;;4.38;1.90;;;;;;;;;;5072670;28;20021;-73
2020/12/29 12:26:19;;;;;;;11.80;2.85;;;;;;;;;;5072696;28;20026;-74
2020/12/29 12:28:44;;;;;;;11.65;2.13;;;;;;;;;;5072355;28;20020;-72
2020/12/29 12:31:14;;;;;;;8.68;1.90;;;;;;;;;;5072607;28;20017;-73
2020/12/29 12:33:39;;;;;;;;;;;;;;;;;;5072965;28;20012;-74
2020/12/29 12:36:05;;;;;;;7.22;2.80;;;;;;;;;;5072180;28;20371;-74
2020/12/29 12:38:30;;;;;;;6.40;1.90;;;;;;;;;;5072497;28;20017;-73
2020/12/29 12:40:56;;;;;;;5.32;2.05;;;;;;;;;;5071059;28;20378;-74
2020/12/29 12:43:21;;;;;;;8.00;2.67;;;;;;;;;;5072186;28;20027;-73
2020/12/29 12:45:47;;;;;;;12.05;2.13;;;;;;;;;;5070842;28;20116;-73
2020/12/29 12:48:13;;;;;;;2.60;1.70;;;;;;;;;;5071845;28;20020;-73
2020/12/29 12:50:39;;;;;;;26.08;3.42;;;;;;;;;;5072429;28;20020;-74
2020/12/29 12:53:04;;;;;;;7.38;2.53;;;;;;;;;;5072681;28;20044;-73
2020/12/29 12:55:30;;;;;;;6.03;3.03;;;;;;;;;;5072344;28;20019;-73
2020/12/29 12:57:55;;;;;;;14.65;3.63;;;;;;;;;;5070575;28;20020;-73
2020/12/29 13:00:21;;;;;;;7.78;3.30;;;;;;;;;;5072014;28;20083;-74
2020/12/29 13:02:46;;;;;;;9.07;2.70;;;;;;;;;;5070874;28;20024;-73
2020/12/29 13:05:15;;;;;;;6.18;2.20;;;;;;;;;;5070775;28;20350;-73
2020/12/29 13:07:41;;;;;;;5.30;1.88;;;;;;;;;;5072192;28;20103;-73
2020/12/29 13:10:06;;;;;;;6.53;1.40;;;;;;;;;;5072069;28;20103;-73
2020/12/29 13:12:32;;;;;;;15.63;1.85;;;;;;;;;;5072268;28;20058;-73
2020/12/29 13:14:58;;;;;;;7.30;1.30;;;;;;;;;;5072092;28;20099;-73
2020/12/29 13:17:24;;;;;;;11.95;3.65;;;;;;;;;;5071637;28;20377;-73
2020/12/29 13:19:49;;;;;;;9.63;2.63;;;;;;;;;;5071823;28;20546;-73
2020/12/29 13:22:15;;;;;;;7.50;1.63;;;;;;;;;;5072211;28;20024;-72
2020/12/29 13:24:40;;;;;;;8.35;3.83;;;;;;;;;;5072151;28;20072;-73
2020/12/29 13:27:06;;;;;;;6.28;1.90;;;;;;;;;;5072156;28;20020;-72
2020/12/29 13:29:31;;;;;;;11.35;2.20;;;;;;;;;;5071913;28;20065;-74
2020/12/29 13:31:57;;;;;;;8.25;2.10;;;;;;;;;;5071872;28;20017;-73
2020/12/29 13:34:23;;;;;;;5.53;1.40;;;;;;;;;;5070853;28;20021;-74
2020/12/29 13:36:48;;;;;;;6.65;1.83;;;;;;;;;;5070855;28;20029;-74
2020/12/29 13:39:14;;;;;;;3.67;2.05;;;;;;;;;;5070773;28;20100;-74
2020/12/29 13:41:39;;;;;;;3.20;1.20;;;;;;;;;;5071932;28;20020;-74
2020/12/29 13:44:05;;;;;;;8.63;2.03;;;;;;;;;;5071507;28;20330;-73
2020/12/29 13:46:30;;;;;;;5.50;1.90;;;;;;;;;;5054159;28;20070;-74
2020/12/29 13:48:55;;;;;;;5.80;2.10;;;;;;;;;;5074499;28;20090;-74
2020/12/29 13:51:21;;;;;;;11.77;1.85;;;;;;;;;;5075644;28;20387;-73
2020/12/29 13:53:47;;;;;;;5.78;2.42;;;;;;;;;;5075322;28;20021;-73
2020/12/29 13:56:14;;;;;;;7.63;2.75;;;;;;;;;;5074457;28;20074;-73
2020/12/29 13:58:40;;;;;;;12.77;2.75;;;;;;;;;;5057322;28;20022;-73
2020/12/29 14:01:06;;;;;;;12.38;2.67;;;;;;;;;;5075014;28;20053;-73
2020/12/29 14:03:31;;;;;;;9.57;3.45;;;;;;;;;;5075264;28;20032;-72
2020/12/29 14:05:57;;;;;;;12.55;3.50;;;;;;;;;;5075299;28;20425;-73
2020/12/29 14:08:22;;;;;;;7.18;3.13;;;;;;;;;;5075549;28;20465;-73
2020/12/29 14:10:48;;;;;;;15.38;4.10;;;;;;;;;;5075320;28;20021;-73
2020/12/29 14:13:13;;;;;;;9.32;4.07;;;;;;;;;;5074936;28;20024;-72
2020/12/29 14:15:39;;;;;;;4.68;2.80;;;;;;;;;;5073945;28;20097;-73
2020/12/29 14:18:04;;;;;;;17.17;3.70;;;;;;;;;;5074387;28;20059;-73
2020/12/29 14:20:29;;;;;;;15.65;4.65;;;;;;;;;;5075108;28;20024;-73
2020/12/29 14:22:55;;;;;;;7.85;3.65;;;;;;;;;;5074978;28;20042;-73
2020/12/29 14:25:20;;;;;;;12.95;4.30;;;;;;;;;;5073692;28;20019;-72
2020/12/29 14:27:49;;;;;;;12.15;4.32;;;;;;;;;;5074522;28;20063;-72
2020/12/29 14:30:14;;;;;;;14.57;4.75;;;;;;;;;;5074876;28;20413;-73
2020/12/29 14:32:42;;;;;;;9.82;3.50;;;;;;;;;;5074872;28;20025;-73
2020/12/29 14:35:07;;;;;;;13.10;4.55;;;;;;;;;;5074785;28;20086;-73
2020/12/29 14:37:33;;;;;;;8.15;3.20;;;;;;;;;;5073402;28;20103;-73
2020/12/29 14:39:58;;;;;;;20.02;4.78;;;;;;;;;;5073317;28;20074;-73
2020/12/29 14:42:24;;;;;;;21.20;6.70;;;;;;;;;;5074988;28;20027;-72
2020/12/29 14:44:49;;;;;;;18.70;7.55;;;;;;;;;;5074626;28;20054;-72
2020/12/29 14:47:15;;;;;;;22.75;8.80;;;;;;;;;;5073820;28;20024;-72
2020/12/29 14:49:41;;;;;;;17.23;6.35;;;;;;;;;;5074585;28;20020;-72
2020/12/29 14:52:07;;;;;;;14.18;4.22;;;;;;;;;;5073196;28;20119;-72
2020/12/29 14:54:34;;;;;;;14.10;5.88;;;;;;;;;;5074707;28;20525;-74
2020/12/29 14:57:00;;;;;;;11.93;4.72;;;;;;;;;;5074577;28;20034;-72
2020/12/29 14:59:25;;;;;;;16.08;4.70;;;;;;;;;;5072866;28;20469;-73
2020/12/29 15:01:51;;;;;;;17.42;4.95;;;;;;;;;;5074145;28;20044;-73
2020/12/29 15:04:16;;;;;;;12.35;4.57;;;;;;;;;;5074366;28;20095;-72
2020/12/29 15:06:42;;;;;;;9.23;4.07;;;;;;;;;;5074542;28;20029;-72
2020/12/29 15:09:09;;;;;;;10.80;4.38;;;;;;;;;;5074198;28;20066;-72
2020/12/29 15:11:35;;;;;;;8.30;4.70;;;;;;;;;;5072922;28;20016;-72
2020/12/29 15:14:00;;;;;;;17.33;7.07;;;;;;;;;;5072474;28;20017;-73
2020/12/29 15:16:26;;;;;;;13.25;6.72;;;;;;;;;;5073479;28;20104;-72
2020/12/29 15:18:51;;;;;;;12.18;6.03;;;;;;;;;;5073973;28;20105;-73
2020/12/29 15:21:17;;;;;;;21.10;6.85;;;;;;;;;;5073989;28;20021;-73
2020/12/29 15:23:43;;;;;;;15.80;6.45;;;;;;;;;;5072662;28;20445;-73
2020/12/29 15:26:09;;;;;;;14.55;6.82;;;;;;;;;;5072570;28;20024;-73
2020/12/29 15:28:36;;;;;;;19.90;10.40;;;;;;;;;;5072357;28;20026;-72
2020/12/29 15:31:01;;;;;;;25.17;10.13;;;;;;;;;;5073844;28;20009;-73
2020/12/29 15:33:27;;;;;;;17.88;8.50;;;;;;;;;;5073585;28;20016;-73
2020/12/29 15:35:53;;;;;;;18.48;7.95;;;;;;;;;;5073563;28;20013;-73
2020/12/29 15:38:18;;;;;;;11.45;5.85;;;;;;;;;;5072415;28;20046;-73
2020/12/29 15:40:44;;;;;;;13.82;6.55;;;;;;;;;;5072736;28;20035;-73
2020/12/29 15:43:09;;;;;;;16.92;5.90;;;;;;;;;;5073391;28;20025;-72
2020/12/29 15:45:35;;;;;;;18.92;8.10;;;;;;;;;;5072286;28;20374;-73
2020/12/29 15:48:00;;;;;;;17.67;7.95;;;;;;;;;;5072701;28;20491;-73
2020/12/29 15:50:26;;;;;;;22.08;9.30;;;;;;;;;;5072075;28;20149;-73
2020/12/29 15:52:52;;;;;;;15.00;7.28;;;;;;;;;;5055534;28;20009;-73
2020/12/29 15:55:18;;;;;;;14.85;7.32;;;;;;;;;;5073204;28;20024;-73
2020/12/29 15:57:43;;;;;;;18.50;6.68;;;;;;;;;;5071758;28;20151;-72
2020/12/29 16:00:08;;;;;;;13.90;5.50;;;;;;;;;;5073058;28;20048;-73
2020/12/29 16:02:34;;;;;;;11.45;5.15;;;;;;;;;;5073085;28;20012;-73
2020/12/29 16:05:00;;;;;;;14.02;6.22;;;;;;;;;;5073127;28;20048;-73
2020/12/29 16:07:25;;;;;;;18.75;7.93;;;;;;;;;;5071819;28;20555;-73
2020/12/29 16:09:50;;;;;;;14.32;7.50;;;;;;;;;;5072593;28;20028;-75
2020/12/29 16:12:17;;;;;;;15.23;6.57;;;;;;;;;;5072924;28;20021;-72
2020/12/29 16:14:43;;;;;;;16.02;7.22;;;;;;;;;;5072855;28;20027;-73
2020/12/29 16:17:08;;;;;;;17.58;8.55;;;;;;;;;;5072298;28;20104;-73
2020/12/29 16:19:34;;;;;;;23.30;6.65;;;;;;;;;;5073030;28;20034;-72
2020/12/29 16:21:59;;;;;;;15.55;7.15;;;;;;;;;;5071267;28;20023;-73
2020/12/29 16:24:25;;;;;;;17.98;6.78;;;;;;;;;;5072700;28;20046;-72
2020/12/29 16:26:50;;;;;;;17.45;7.32;;;;;;;;;;5072790;28;20529;-73
2020/12/29 16:29:15;;;;;;;19.02;7.03;;;;;;;;;;5071339;28;20051;-72
2020/12/29 16:31:41;;;;;;;13.65;6.90;;;;;;;;;;5071175;28;20028;-73
2020/12/29 16:34:07;;;;;;;21.80;9.25;;;;;;;;;;5071643;28;20469;-72
2020/12/29 16:36:35;;;;;;;20.55;8.85;;;;;;;;;;5071104;28;20009;-73
2020/12/29 16:39:02;;;;;;;14.93;7.07;;;;;;;;;;5071460;28;20017;-73
2020/12/29 16:41:28;;;;;;;19.73;9.52;;;;;;;;;;5071251;28;20364;-73
2020/12/29 16:43:54;;;;;;;15.10;6.93;;;;;;;;;;5054325;28;20115;-72
2020/12/29 16:46:20;;;;;;;15.13;6.57;;;;;;;;;;5072551;28;20020;-73
2020/12/29 16:48:45;;;;;;;21.50;8.38;;;;;;;;;;5071783;28;20094;-73
2020/12/29 16:51:10;;;;;;;17.25;9.30;;;;;;;;;;5071121;28;20020;-72
2020/12/29 16:53:36;;;;;;;17.48;6.68;;;;;;;;;;5072656;28;20451;-72
2020/12/29 16:56:01;;;;;;;14.50;6.40;;;;;;;;;;5070911;28;20020;-72
2020/12/29 16:58:27;;;;;;;12.20;6.40;;;;;;;;;;5072071;28;20012;-73
2020/12/29 17:00:52;;;;;;;14.43;7.00;;;;;;;;;;5070662;28;20473;-73
2020/12/29 17:03:17;;;;;;;16.17;8.20;;;;;;;;;;5072319;28;20020;-72
2020/12/29 17:05:43;;;;;;;29.33;10.13;;;;;;;;;;5072107;28;20020;-73
2020/12/29 17:08:09;;;;;;;17.63;7.20;;;;;;;;;;5072570;28;20020;-72
2020/12/29 17:10:34;;;;;;;21.55;8.95;;;;;;;;;;5072241;28;20017;-73
2020/12/29 17:13:00;;;;;;;21.25;9.68;;;;;;;;;;5072015;28;20123;-72
2020/12/29 17:15:25;;;;;;;31.73;10.30;;;;;;;;;;5070799;28;20127;-72
2020/12/29 17:17:52;;;;;;;26.92;10.35;;;;;;;;;;5071372;28;20013;-72
2020/12/29 17:20:18;;;;;;;28.80;11.13;;;;;;;;;;5071032;28;20032;-72
2020/12/29 17:22:43;;;;;;;37.97;15.70;;;;;;;;;;5075052;28;20028;-73
2020/12/29 17:25:09;;;;;;;58.13;19.83;;;;;;;;;;5075049;28;20025;-72
2020/12/29 17:27:35;;;;;;;45.35;16.50;;;;;;;;;;5075975;28;20020;-71
2020/12/29 17:30:01;;;;;;;34.28;13.13;;;;;;;;;;5074744;28;20025;-72
2020/12/29 17:32:26;;;;;;;35.10;11.57;;;;;;;;;;5075938;28;20024;-72
2020/12/29 17:34:52;;;;;;;32.60;12.52;;;;;;;;;;5076090;28;20371;-73
2020/12/29 17:37:18;;;;;;;23.10;9.85;;;;;;;;;;5075955;28;20050;-73
2020/12/29 17:39:43;;;;;;;22.15;10.82;;;;;;;;;;5075678;28;20029;-72
2020/12/29 17:42:08;;;;;;;26.23;11.73;;;;;;;;;;5074559;28;20477;-71
2020/12/29 17:44:34;;;;;;;23.42;10.77;;;;;;;;;;5075617;28;20016;-73
2020/12/29 17:46:59;;;;;;;14.25;7.13;;;;;;;;;;5075134;28;20020;-72
2020/12/29 17:49:25;;;;;;;16.25;6.65;;;;;;;;;;5075622;28;20016;-73
2020/12/29 17:51:51;;;;;;;12.38;5.80;;;;;;;;;;5075430;28;20020;-72
2020/12/29 17:54:16;;;;;;;14.88;5.85;;;;;;;;;;5074440;28;20023;-72
2020/12/29 17:56:42;;;;;;;10.98;6.15;;;;;;;;;;5075569;28;20095;-73
2020/12/29 17:59:08;;;;;;;11.60;6.18;;;;;;;;;;5075654;28;20024;-72
2020/12/29 18:01:33;;;;;;;13.18;7.30;;;;;;;;;;5075150;28;20519;-73
2020/12/29 18:04:02;;;;;;;21.33;8.57;;;;;;;;;;5075137;28;20066;-73
2020/12/29 18:06:27;;;;;;;14.93;7.05;;;;;;;;;;5075474;28;20024;-73
2020/12/29 18:08:53;;;;;;;14.35;7.95;;;;;;;;;;5075432;28;20016;-73
2020/12/29 18:11:19;;;;;;;17.38;7.88;;;;;;;;;;5075333;28;20091;-73
2020/12/29 18:13:45;;;;;;;17.65;7.75;;;;;;;;;;5057169;28;20023;-72
2020/12/29 18:16:11;;;;;;;14.05;7.38;;;;;;;;;;5074039;28;20419;-72
2020/12/29 18:18:37;;;;;;;15.50;7.35;;;;;;;;;;5073287;28;20097;-72
2020/12/29 18:21:02;;;;;;;21.30;10.55;;;;;;;;;;5073850;28;20021;-72
2020/12/29 18:23:29;;;;;;;21.02;10.32;;;;;;;;;;5074949;28;20162;-72
2020/12/29 18:25:54;;;;;;;24.10;10.63;;;;;;;;;;5073588;28;20024;-72
2020/12/29 18:28:20;;;;;;;20.60;11.25;;;;;;;;;;5074899;28;20033;-72
2020/12/29 18:30:45;;;;;;;17.05;8.98;;;;;;;;;;5075160;28;20020;-73
2020/12/29 18:33:11;;;;;;;16.17;7.82;;;;;;;;;;5073174;28;20024;-73
2020/12/29 18:35:37;;;;;;;16.60;8.23;;;;;;;;;;5074956;28;20071;-73
2020/12/29 18:38:02;;;;;;;17.30;8.55;;;;;;;;;;5074736;28;20175;-73
2020/12/29 18:40:28;;;;;;;15.25;7.97;;;;;;;;;;5074752;28;20396;-73
2020/12/29 18:42:53;;;;;;;17.58;9.07;;;;;;;;;;5074530;28;20462;-71
2020/12/29 18:45:20;;;;;;;19.63;10.65;;;;;;;;;;5074590;28;20017;-72
2020/12/29 18:47:45;;;;;;;15.43;9.10;;;;;;;;;;5073840;28;20013;-73
2020/12/29 18:50:11;;;;;;;20.02;8.93;;;;;;;;;;5074660;28;20013;-73
2020/12/29 18:52:36;;;;;;;20.60;10.52;;;;;;;;;;5074433;28;20059;-73
2020/12/29 18:55:02;;;;;;;28.88;15.02;;;;;;;;;;5073262;28;20483;-73
2020/12/29 18:57:27;;;;;;;24.95;13.05;;;;;;;;;;5073140;28;20052;-73
2020/12/29 18:59:54;;;;;;;22.88;11.95;;;;;;;;;;5072822;28;20048;-74
2020/12/29 19:02:20;;;;;;;15.15;9.65;;;;;;;;;;5073007;28;20103;-74
2020/12/29 19:04:46;;;;;;;26.45;13.38;;;;;;;;;;5074328;28;20008;-73
2020/12/29 19:07:12;;;;;;;30.30;13.18;;;;;;;;;;5074361;28;20442;-73
2020/12/29 19:09:37;;;;;;;22.58;11.45;;;;;;;;;;5074215;28;20104;-73
2020/12/29 19:12:03;;;;;;;18.23;9.85;;;;;;;;;;5074039;28;20031;-71
2020/12/29 19:14:28;;;;;;;17.30;9.50;;;;;;;;;;5073854;28;20036;-73
2020/12/29 19:16:54;;;;;;;20.02;10.25;;;;;;;;;;5072165;28;20017;-73
2020/12/29 19:19:21;;;;;;;17.85;10.60;;;;;;;;;;5073968;28;20036;-73
2020/12/29 19:21:47;;;;;;;20.02;10.10;;;;;;;;;;5073792;28;20149;-72
2020/12/29 19:24:12;;;;;;;17.05;10.23;;;;;;;;;;5073874;28;20036;-72
2020/12/29 19:26:42;;;;;;;23.35;11.55;;;;;;;;;;5073779;28;20059;-73
2020/12/29 19:29:07;;;;;;;51.30;17.75;;;;;;;;;;5072516;28;20437;-72
2020/12/29 19:31:34;;;;;;;34.75;13.45;;;;;;;;;;5072327;28;20130;-72
2020/12/29 19:33:59;;;;;;;28.92;13.05;;;;;;;;;;5072367;28;20020;-73
2020/12/29 19:36:25;;;;;;;28.90;13.35;;;;;;;;;;5072549;28;20469;-73
2020/12/29 19:38:50;;;;;;;29.30;11.30;;;;;;;;;;5073611;28;20125;-73
2020/12/29 19:41:16;;;;;;;19.42;10.50;;;;;;;;;;5073380;28;20024;-73
2020/12/29 19:43:42;;;;;;;28.75;13.38;;;;;;;;;;5072461;28;20024;-72
2020/12/29 19:46:09;;;;;;;28.08;13.75;;;;;;;;;;5071985;28;20103;-72
2020/12/29 19:48:35;;;;;;;24.92;13.43;;;;;;;;;;5072761;28;20054;-73
2020/12/29 19:51:02;;;;;;;26.33;12.98;;;;;;;;;;5073418;28;20035;-72
2020/12/29 19:53:28;;;;;;;20.85;12.23;;;;;;;;;;5055267;28;20020;-72
2020/12/29 19:55:54;;;;;;;16.80;9.70;;;;;;;;;;5073102;28;20020;-72
2020/12/29 19:58:19;;;;;;;19.08;9.32;;;;;;;;;;5072126;28;20008;-73
2020/12/29 20:00:44;;;;;;;18.80;10.70;;;;;;;;;;5072902;28;20060;-73
2020/12/29 20:03:10;;;;;;;14.70;8.57;;;;;;;;;;5073263;28;20104;-73
2020/12/29 20:05:35;;;;;;;17.65;10.23;;;;;;;;;;5073095;28;20033;-72
2020/12/29 20:08:01;;;;;;;20.20;9.15;;;;;;;;;;5072785;28;20028;-72
2020/12/29 20:10:27;;;;;;;19.85;10.50;;;;;;;;;;5071772;28;20024;-72
2020/12/29 20:12:52;;;;;;;18.02;9.10;;;;;;;;;;5071826;28;20473;-72
2020/12/29 20:15:18;;;;;;;17.90;10.57;;;;;;;;;;5055371;28;20497;-72
2020/12/29 20:17:43;;;;;;;17.67;9.98;;;;;;;;;;5071918;28;20028;-72
2020/12/29 20:20:09;;;;;;;18.67;10.18;;;;;;;;;;5072783;28;20115;-72
2020/12/29 20:22:34;;;;;;;19.67;9.68;;;;;;;;;;5071539;28;20043;-73
2020/12/29 20:25:00;;;;;;;23.05;11.20;;;;;;;;;;5071656;28;20095;-72
2020/12/29 20:27:26;;;;;;;18.05;10.48;;;;;;;;;;5072576;28;20028;-72
2020/12/29 20:29:51;;;;;;;18.05;9.63;;;;;;;;;;5054759;28;20491;-72
2020/12/29 20:32:18;;;;;;;17.60;10.70;;;;;;;;;;5072903;28;20096;-72
2020/12/29 20:34:43;;;;;;;19.73;10.93;;;;;;;;;;5072717;28;20134;-72
2020/12/29 20:37:09;;;;;;;24.60;10.20;;;;;;;;;;5072914;28;20116;-72
2020/12/29 20:39:34;;;;;;;16.98;9.77;;;;;;;;;;5071402;28;20028;-73
2020/12/29 20:42:00;;;;;;;23.08;11.07;;;;;;;;;;5072766;28;20960;-72
2020/12/29 20:44:25;;;;;;;17.85;10.38;;;;;;;;;;5071547;28;20447;-73
2020/12/29 20:46:51;;;;;;;20.45;11.02;;;;;;;;;;5071670;28;20028;-72
2020/12/29 20:49:16;;;;;;;18.52;11.20;;;;;;;;;;5072477;28;20024;-73
2020/12/29 20:51:42;;;;;;;25.15;13.02;;;;;;;;;;5071078;28;20067;-72
2020/12/29 20:54:07;;;;;;;39.80;17.73;;;;;;;;;;5072440;28;20023;-72
2020/12/29 20:56:33;;;;;;;33.63;16.52;;;;;;;;;;5071013;28;20035;-73
2020/12/29 20:58:58;;;;;;;41.80;20.17;;;;;;;;;;5070991;28;20103;-72
2020/12/29 21:01:25;;;;;;;33.17;16.20;;;;;;;;;;5070886;28;20053;-73
2020/12/29 21:03:51;;;;;;;32.90;17.95;;;;;;;;;;5072032;28;20016;-73
2020/12/29 21:06:17;;;;;;;29.10;16.90;;;;;;;;;;5072646;28;20082;-73
2020/12/29 21:08:43;;;;;;;31.10;17.55;;;;;;;;;;5071126;28;20017;-72
2020/12/29 21:11:09;;;;;;;34.53;19.83;;;;;;;;;;5072429;28;20039;-72
2020/12/29 21:13:35;;;;;;;30.05;17.38;;;;;;;;;;5072001;28;20019;-73
2020/12/29 21:16:00;;;;;;;31.33;17.05;;;;;;;;;;5071900;28;20465;-72
2020/12/29 21:18:26;;;;;;;29.48;15.90;;;;;;;;;;5070287;28;20067;-72
2020/12/29 21:20:52;;;;;;;38.38;15.77;;;;;;;;;;5072079;28;20025;-73
2020/12/29 21:23:18;;;;;;;26.05;14.05;;;;;;;;;;5072150;28;20020;-72
2020/12/29 21:25:44;;;;;;;28.30;15.23;;;;;;;;;;5070702;28;20020;-73
2020/12/29 21:28:11;;;;;;;28.42;14.82;;;;;;;;;;5071986;28;20465;-72
2020/12/29 21:30:38;;;;;;;29.30;14.93;;;;;;;;;;5072074;28;20592;-72
2020/12/29 21:33:03;;;;;;;27.25;15.20;;;;;;;;;;5072143;28;20017;-72
2020/12/29 21:35:29;;;;;;;25.67;13.30;;;;;;;;;;5072014;28;20012;-72
2020/12/29 21:37:54;;;;;;;23.17;13.15;;;;;;;;;;5070523;28;20385;-73
2020/12/29 21:40:21;;;;;;;25.65;14.38;;;;;;;;;;5071983;28;20028;-73
2020/12/29 21:42:47;;;;;;;28.98;15.05;;;;;;;;;;5070655;28;20028;-73
2020/12/29 21:45:12;;;;;;;30.75;16.83;;;;;;;;;;5072094;28;20389;-72
2020/12/29 21:47:37;;;;;;;26.88;13.75;;;;;;;;;;5071244;28;20021;-73
2020/12/29 21:50:03;;;;;;;24.15;13.35;;;;;;;;;;5070341;28;20048;-72
2020/12/29 21:52:28;;;;;;;24.55;13.52;;;;;;;;;;5071942;28;20021;-72
2020/12/29 21:54:54;;;;;;;28.05;15.07;;;;;;;;;;5071998;28;20028;-73
2020/12/29 21:57:20;;;;;;;27.25;14.13;;;;;;;;;;5071590;28;20021;-72
2020/12/29 21:59:46;;;;;;;31.20;16.13;;;;;;;;;;5071329;28;20013;-73
2020/12/29 22:02:11;;;;;;;31.48;16.85;;;;;;;;;;5071936;28;20020;-73
2020/12/29 22:04:38;;;;;;;41.28;17.73;;;;;;;;;;5070613;28;20024;-73
2020/12/29 22:07:04;;;;;;;28.88;15.85;;;;;;;;;;5072194;28;20017;-72
2020/12/29 22:09:30;;;;;;;29.48;15.10;;;;;;;;;;5075266;28;20381;-73
2020/12/29 22:11:55;;;;;;;32.60;15.52;;;;;;;;;;5073758;28;20024;-71
2020/12/29 22:14:22;;;;;;;33.92;15.88;;;;;;;;;;5075626;28;20027;-73
2020/12/29 22:16:47;;;;;;;27.83;13.90;;;;;;;;;;5073125;28;20527;-73
2020/12/29 22:19:13;;;;;;;28.70;14.23;;;;;;;;;;5075153;28;20025;-72
2020/12/29 22:21:39;;;;;;;33.20;14.50;;;;;;;;;;5073658;28;20041;-73
2020/12/29 22:24:04;;;;;;;32.55;15.30;;;;;;;;;;5074981;28;20146;-73
2020/12/29 22:26:30;;;;;;;33.00;14.90;;;;;;;;;;5074975;28;20048;-73
2020/12/29 22:28:58;;;;;;;37.67;14.52;;;;;;;;;;5073679;28;20496;-73
2020/12/29 22:31:25;;;;;;;35.42;16.02;;;;;;;;;;5073859;28;20105;-73
2020/12/29 22:33:51;;;;;;;49.33;18.02;;;;;;;;;;5073515;28;20024;-73
2020/12/29 22:36:17;;;;;;;46.80;18.33;;;;;;;;;;5074840;28;20385;-73
2020/12/29 22:38:44;;;;;;;35.03;16.50;;;;;;;;;;5075090;28;20107;-73
2020/12/29 22:41:10;;;;;;;40.15;15.68;;;;;;;;;;5073365;28;20025;-72
2020/12/29 22:43:36;;;;;;;39.08;15.70;;;;;;;;;;5073439;28;20092;-73
2020/12/29 22:46:02;;;;;;;31.35;13.30;;;;;;;;;;5074495;28;20478;-73
2020/12/29 22:48:28;;;;;;;27.38;12.30;;;;;;;;;;5072830;28;20020;-73
2020/12/29 22:50:53;;;;;;;25.30;12.00;;;;;;;;;;5073235;28;20017;-73
2020/12/29 22:53:19;;;;;;;26.90;13.82;;;;;;;;;;5074558;28;20031;-73
2020/12/29 22:55:44;;;;;;;30.15;12.98;;;;;;;;;;5074288;28;20091;-72
2020/12/29 22:58:10;;;;;;;26.90;11.82;;;;;;;;;;5074292;28;20013;-73
2020/12/29 23:00:36;;;;;;;20.25;11.43;;;;;;;;;;5074172;28;20531;-73
2020/12/29 23:03:01;;;;;;;21.45;9.95;;;;;;;;;;5074374;28;20025;-73
2020/12/29 23:05:27;;;;;;;23.10;10.85;;;;;;;;;;5074328;28;20103;-74
2020/12/29 23:07:52;;;;;;;22.15;11.63;;;;;;;;;;5072900;28;20012;-73
2020/12/29 23:10:18;;;;;;;27.48;12.90;;;;;;;;;;5072820;28;20024;-73
2020/12/29 23:12:44;;;;;;;27.83;12.30;;;;;;;;;;5074072;28;20009;-73
2020/12/29 23:15:09;;;;;;;28.60;13.65;;;;;;;;;;5072800;28;20013;-74
2020/12/29 23:17:35;;;;;;;26.15;14.15;;;;;;;;;;5072172;28;20158;-72
2020/12/29 23:20:00;;;;;;;28.50;13.18;;;;;;;;;;5072642;28;20024;-73
2020/12/29 23:22:25;;;;;;;30.23;12.88;;;;;;;;;;5073942;28;20031;-73